cliquez pour ajouter le site Runraid à vos favoris  English version (google)  Retour à l'accueil Ecrire à l'auteur du site Runraid : Michel Jourdan



Les prochaines courses


Les derniers résultats

cliquez pour visualiser la page complète relatant la chronologie des éruptions du Piton de la Fournaise
éruptions Piton de la Fournaise


Ile de La Réunion

 Diagonale des Fous 

Ecrire au créateur du site : Michel Jourdan
Contact


2015-08-15 - Foulées de Saint-Leu

Pour consulter le palmarès d'un coureur, un clic sur son nom !

Vous avez des remarques, corrections, ... sur ces résultats , un clic sur --> pour me transmettre toute information concernant les classements


Foulées de Saint-Leu - 2015 : classement des 318 finishers
Place Nom Temps Cat. Club Sexe Clt/cat.
Place Nom Temps Cat. Club Sexe Clt/cat.
1 TSANG CHUN SZE laurent 00:33:04 ESM - M 70
2 LE GUERN KEVIN 00:33:07 ESM CAPOSS M 2 ESM 115
3 BARLIEU RONAN 00:33:13 ESM CAPOSS M 3 ESM 204
4 BARRET BENJAMIN 00:33:22 V1M CASM M 1 V1M 205
5 HOARAU JEAN DIDIER 00:33:24 SEM CASL M 1 SEM 261
6 TRULES GERALDO 00:33:48 SEM ACSP M 2 SEM 357
7 ERINACINT GEORGES MARIE 00:34:05 SEM ADISS M 3 SEM 81
8 BOUFARIHA ABDELJALIL 00:34:13 V1M CASM M 2 V1M 389
9 IMONJA JEREMIE 00:34:13 V1M DSA M 3 V1M 240
10 DIJOUX JEAN BERNARD 00:34:19 V1M AVAD M 4 V1M 156
11 BLOTTIN NICOLAS 00:35:02 V1M ACSP M 5 V1M 192
12 MERMERA FRED 00:35:04 V2M ACSTB M 1 V2M 86
13 TEITGEN Francois 00:35:20 V1M - M 6 V1M 315
14 PEDRE STEPHANE 00:35:34 SEM - M 4 SEM 159
15 TALIMBOLA JEAN BENOIT 00:35:34 V1M CAPOSS M 7 V1M 311
16 ECLAPIER BERTRAND 00:35:43 SEM CASM M 5 SEM 336
17 GARDEBIEN KEVIN 00:35:45 JUM DSA M 1 JUM 162
18 MUGUEL PASCAL 00:35:46 V1M BNA M 8 V1M 108
19 PAPON FRANCOIS 00:36:01 SEM - M 6 SEM 106
20 SOUEIDAN Khaled 00:36:05 V1M - M 9 V1M 107
21 VIDOT YANNICK 00:36:10 SEM BNA M 7 SEM 138
22 LEE SONG YIN Gino 00:36:38 V1M DENIV M 10 V1M 136
23 RANGUIN Jean Bertrand 00:36:57 V1M - M 11 V1M 297
24 TERRENTROY Guillaume 00:36:59 ESM - M 4 ESM 191
25 ASSON ALEXANDRE 00:37:01 CAM DSA M 1 CAM 166
26 DIJOUX JEAN RENE 00:37:10 SEM - M 8 SEM 73
27 PHALARIS Frederic 00:37:20 SEM - M 9 SEM 371
28 CUVELIER LEOPOLD 00:37:26 SEM CAPOSS M 10 SEM 224
29 PERIANDEMODELY GAEL 00:37:29 SEM ACSP M 11 SEM 175
30 MAILLOT Jean Dany 00:37:30 SEM - M 12 SEM 277
31 TRIHAN MALO 00:37:32 V1M ACSP M 12 V1M 109
32 GARCIN Jean Emile 00:37:34 SEM - M 13 SEM 113
33 BOMINTHE JEAN RAYMOND 00:37:41 V1M CAPOSS M 13 V1M 210
34 ZELMAR DOMINIQUE 00:37:46 V1M - M 14 V1M 160
35 COROLLEUR Sebastien 00:37:47 SEM - M 14 SEM 60
36 VASSOR CEDRIC 00:37:50 SEM RUN'A M 15 SEM 112
37 CHEONG YUEN ZING GUILLAUME 00:37:56 SEM CAPOSS M 16 SEM 220
38 GIRAUDET Patrick 00:38:10 V1M - M 15 V1M 339
39 VELIA LOIC 00:38:11 SEM RUN'A M 17 SEM 386
40 FELICITE Jean Francois 00:38:14 SEM - M 18 SEM 368
41 VIAUD Thomas 00:38:15 SEM - M 19 SEM 359
42 DERAND Raphael 00:38:17 SEM - M 20 SEM 231
43 HERBE Sylvain 00:38:19 V1M - M 16 V1M 259
44 FATOL Thierry 00:38:21 SEM - M 21 SEM 238
45 DUBART KEVIN 00:38:23 JUM CASM M 2 JUM 32
46 DUBOIS VIVIEN 00:38:28 JUM AC ST LEU M 3 JUM 335
47 BEZOT ROMAIN 00:38:30 SEM AC ST LEU M 22 SEM 329
48 LIBELLE JORIS 00:38:32 SEM CAPOSS M 23 SEM 274
49 GAMIN Jean Marie 00:38:44 V1M - M 17 V1M 383
50 VINCENT Noel 00:38:45 V1M - M 18 V1M 322
51 PUY MARCELLE 00:38:47 V1F CAPOSS F 1ere F 295
52 PERRAULT Vincent 00:38:53 CAM - M 2 CAM 127
53 DOMBECK Nicolas 00:39:06 SEM - M 24 SEM 131
54 MASSAIN Jacques 00:39:06 V2M - M 2 V2M 283
55 THOMAS THIERRY 00:39:07 SEM BNA M 25 SEM 76
56 TROVALET MATTHIAS 00:39:10 JUM CAPP M 4 JUM 318
57 RENARD ERIC 00:39:22 SEM - M 26 SEM 151
58 PAVIEL PHILIPPE 00:39:27 V2M ACSP M 3 V2M 289
59 BOYER FLORENT 00:39:30 JUM CAPOSS M 5 JUM 212
60 SOUCHON WILLY 00:39:30 SEM AC ST LEU M 27 SEM 356
61 TATEL Erickson 00:39:37 SEM - M 28 SEM 314
62 JEBANE Brice 00:39:41 JUM - M 6 JUM 190
63 DERAND DELPHINE 00:39:43 SEF ACSP F 2eme F / 1 SEF 58
64 ELLAMA Roland 00:39:43 V2M - M 4 V2M 236
65 FRANcOIS Eric 00:39:52 SEM - M 29 SEM 15
66 ZELMAR Dominique 00:39:55 V1M - M 19 V1M 382
67 ATIAMAN PATRICE 00:39:56 SEM COSPI M 30 SEM 201
68 RIVIERE LUCAS 00:39:56 JUM COSPI M 7 JUM 116
69 AH KING Christophe 00:40:23 V2M - M 5 V2M 197
70 MOLINIER xavier 00:40:27 SEM - M 31 SEM 37
71 VASSOR CHRISTOPHE 00:40:28 SEM - M 32 SEM 62
72 GROSSIN Christophe 00:40:31 SEM - M 33 SEM 254
73 HOAREAU HENRI 00:40:32 V2M CAPC M 6 V2M 45
74 LON MON POY Eric 00:40:41 V1M - M 20 V1M 275
75 SEILLER Emmanuel 00:40:43 V2M - M 7 V2M 372
76 FERNANDES Sebastien 00:41:00 SEM DDC M 34 SEM 239
77 ERINACINT CLEMENT 00:41:02 V1M ADISS M 21 V1M 42
78 DELAUNAY DIDIER 00:41:18 SEM CAPOSS M 35 SEM 2
79 VERDA Jean Francois 00:41:23 SEM - M 36 SEM 321
80 FERARD Rodrigues 00:41:25 SEM - M 37 SEM 307
81 VASSOR FREDERIC 00:41:36 SEM RUN'A M 38 SEM 188
82 AURE Fabrice 00:41:48 V2M - M 8 V2M 328
83 VITRY JEAN HUGUES 00:41:56 V2M CCF RIV M 9 V2M 379
84 OMARJEE sulliman 00:42:10 V2M - M 10 V2M 71
85 BOURHIS Thomas 00:42:28 V1M - M 22 V1M 211
86 BLIN christophe 00:42:40 V1M - M 23 V1M 132
87 CORRE Olivier 00:42:43 SEM - M 39 SEM 144
88 LEPERLIER MICKAEL 00:42:43 SEM - M 40 SEM 176
89 MONDON Emmanuel 00:42:51 SEM - M 41 SEM 124
90 CARO Patrice olivier 00:42:54 SEM - M 42 SEM 41
91 AURE YVON 00:42:55 V2M ACSP M 11 V2M 87
92 BOULANGER Fabrice 00:43:16 SEM - M 43 SEM 331
93 DALLE MULE Dorothee 00:43:18 V1F - F 3eme F / 2 V1F 12
94 TIMALAMACOME Jean Sebastien 00:43:18 SEM - M 44 SEM 377
95 MOUROUVIN Gael 00:43:39 SEM - M 45 SEM 186
96 ROCROU Gerard 00:43:39 ESM - M 5 ESM 302
97 ABRILLET HERVE 00:43:41 V1M CALS SUD M 24 V1M 142
98 FREDELISY JEAN MICHEL 00:43:42 V3M AC ST LEU M 1 V3M 338
99 GUINBERT Stephane 00:43:46 SEM - M 46 SEM 256
100 MARDEMOUTOU JEAN PIERRE 00:43:46 V2M CAPC M 12 V2M 163
101 DIJOUX Wilfrid 00:44:01 V1M - M 25 V1M 94
102 PAYET FABRICE 00:44:06 V2M AC ENTENTE M 13 V2M 75
103 MARA JEAN FRANCOIS 00:44:07 V1M DA M 26 V1M 280
104 LAW YAM Michel 00:44:08 V3M - M 2 V3M 268
105 LACAILLE Expedit 00:44:10 V1M - M 27 V1M 265
106 LASSAY Jean Pierre 00:44:10 V3M - M 3 V3M 98
107 HUET Philippe 00:44:14 V2M - M 14 V2M 263
108 CALPETARD MARIE SANDRINE 00:44:17 SEF DA F 4eme F / 2 SEF 59
109 BENARD stephan 00:44:23 V1M - M 28 V1M 118
110 BORDIER David 00:44:42 V1M CAPOSS M 29 V1M 388
111 MILLON Coralie 00:44:49 SEF - F 5eme F / 3 SEF 287
112 GALMAR Christophe 00:44:57 SEM - M 47 SEM 24
113 PAYET Sylvain 00:44:59 SEM - M 48 SEM 171
114 LAFFORGUE BERNARD 00:45:02 V3M A.C.B M 4 V3M 266
115 MAILLOT Serges 00:45:06 V3M - M 5 V3M 278
116 BARDIN ANDRE MICHEL 00:45:10 V3M CAPOSS M 6 V3M 203
117 DONZ Henri 00:45:12 V2M - M 15 V2M 234
118 AMONY MICKAEL 00:45:21 SEM DSA M 49 SEM 198
119 PAYET YANNICK 00:45:25 V1M ACSP M 30 V1M 350
120 ROCROU Christian 00:45:26 SEM - M 50 SEM 301
121 FLOUVAT SEBASTIEN 00:45:28 SEM - M 51 SEM 139
122 BOITARD Pierrot 00:45:30 SEM - M 52 SEM 330
123 RAGOT BENEDICTE 00:45:30 SEF AC ST LEU F 6eme F / 4 SEF 352
124 SIRA JEAN ELIE 00:45:31 V2M - M 16 V2M 74
125 GELLY CHRISTOPHE 00:45:33 V2M DENIV M 17 V2M 248
126 PAIRAIN leo 00:45:36 SEM - M 53 SEM 78
127 SERY STEPHANE 00:45:44 SEM CAPC M 54 SEM 309
128 BENARD Didier 00:45:47 SEM - M 55 SEM 178
129 CLOTAGATIDE RICHARD FREDERI 00:45:50 V1M LA CHALOUP M 31 V1M 221
130 CADJEE Hassen 00:45:56 SEM - M 56 SEM 128
131 CADET Jonathan 00:46:03 SEM - M 57 SEM 125
132 FONTAINE Fabrice 00:46:07 SEM - M 58 SEM 244
133 HOARAU Damien 00:46:07 CAM - M 3 CAM 95
134 BELUS ariele 00:46:11 V1F - F 7eme F / 3 V1F 133
135 TURNER Nicolas 00:46:16 SEM - M 59 SEM 14
136 DURANDEAU David 00:46:18 SEM - M 60 SEM 179
137 AJORQUE Maryse 00:46:26 V2F - F 8eme F / 1 V2F 90
138 GUEZENOC Kevin 00:46:28 SEM - M 61 SEM 66
139 PICARD JULIEN 00:46:37 SEM LA CHALOUP M 62 SEM 292
140 CHARLES christophe 00:46:45 V1M - M 32 V1M 143
141 AURE PATRICK 00:46:47 V1M OUESTRAIL M 33 V1M 18
142 ROCROU Yohan 00:46:52 JUM - M 8 JUM 303
143 LEROUX Stephane 00:46:55 V1M - M 34 V1M 272
144 RAUDRANT ANNE 00:46:55 V1F ACSP F 9eme F / 4 V1F 177
145 CRENN stephane 00:47:00 SEM - M 63 SEM 183
146 PICARD Emma 00:47:03 JUF - F 10eme F / 1 JUF 291
147 DIJOUX Armand 00:47:04 V1M - M 35 V1M 233
148 ABELLA Thierry 00:47:23 SEM - M 64 SEM 326
149 PIVET leo 00:47:26 SEM - M 65 SEM 158
150 MINIAMA JEAN SEBASTIEN 00:47:27 V1M - M 36 V1M 130
151 MINIAMA MARIE LAURE 00:47:29 SEF - F 11eme F / 5 SEF 129
152 PAYET Joseph Yves 00:47:29 V3M - M 7 V3M 97
153 DENNEMONT Julien 00:47:33 SEM - M 66 SEM 50
154 LEBON Laurent 00:47:39 ESM - M 6 ESM 150
155 ABDOOLALLIAS SAABIR 00:47:40 SEM CAPOSS M 67 SEM 134
156 LAUER Gaelle 00:47:42 SEF - F 12eme F / 6 SEF 10
157 DESSIMIETTI Mathieu 00:47:45 SEM - M 68 SEM 232
158 CASSAM CHENAi Tatiana 00:47:49 SEF - F 13eme F / 7 SEF 80
159 TANJAMA Johnny 00:48:02 V1M - M 37 V1M 11
160 ABOULKER Cyril 00:48:04 SEM - M 69 SEM 195
161 GICQUEL celine 00:48:04 SEF - F 14eme F / 8 SEF 152
162 LALA Salma 00:48:04 SEF - F 15eme F / 9 SEF 77
163 CHEVALIER Jean Ulrich 00:48:22 SEM - M 70 SEM 169
164 JEAN patrick 00:48:28 V1M - M 38 V1M 67
165 SAINT LAMBERT MYLENE 00:48:28 SEF AC ENTENTE F 16eme F / 10 SEF 65
166 GRONDIN jimmy 00:48:43 SEM - M 71 SEM 51
167 ADRIEN Nicolas 00:48:45 SEM - M 72 SEM 196
168 DALLEAU ANGELIQUE 00:48:46 SEF - F 17eme F / 11 SEF 121
169 YAMI Eric 00:48:46 V2M - M 18 V2M 364
170 FONTAINE Vincent Jules 00:48:51 SEM - M 73 SEM 189
171 VITRY Priscilla 00:48:52 SEF - F 18eme F / 12 SEF 378
172 HOARAU Alice 00:48:54 SEF - F 19eme F / 13 SEF 260
173 RIDA Mohamed 00:48:54 V1M - M 39 V1M 390
174 DEJEAN Frederic 00:49:11 SEM - M 74 SEM 227
175 JACQUET Eddy 00:49:13 V1M - M 40 V1M 343
176 BOISSINOT matthieu 00:49:15 SEM - M 75 SEM 85
177 VINcON Laurent 00:49:23 V1M - M 41 V1M 187
178 DEURVEILLER Severine 00:49:25 SEF - F 20eme F / 14 SEF 4
179 MOUTOUSSAMY JEROME 00:49:32 SEM - M 76 SEM 167
180 MOREL Jean Raymond 00:49:37 V2M - M 19 V2M 56
181 CHARRIAU stephane 00:49:43 V1M - M 42 V1M 180
182 GAILLARD antoine 00:49:51 SEM - M 77 SEM 83
183 GRALL Tiphanie 00:49:51 SEF - F 21eme F / 15 SEF 157
184 MARY SIDA LAURENCE 00:50:00 V1F DSA F 22eme F / 5 V1F 55
185 ARNAUD Agathe 00:50:03 SEF - F 23eme F / 16 SEF 327
186 IMARY Christian 00:50:03 SEM - M 78 SEM 342
187 HOARAU Olivier 00:50:05 SEM - M 79 SEM 114
188 CLASSEAU LOUISE 00:50:06 SEF AC ST LEU F 24eme F / 17 SEF 333
189 LON MON POY Patrick 00:50:10 V1M - M 43 V1M 276
190 OULIA giovanni 00:50:19 SEM - M 80 SEM 168
191 CHOLLAT NAMY Souan 00:50:23 SEM - M 81 SEM 381
192 LECLERC GUILLOTTE STEPHANE 00:50:28 V1M AC ST LEU M 44 V1M 345
193 PRONOST PHILIPPE 00:50:28 V1M AC ST LEU M 45 V1M 351
194 FONTAINE Marie Elodie 00:50:47 SEF - F 25eme F / 18 SEF 245
195 PARE FREDDY 00:50:56 SEM - M 82 SEM 172
196 BALEYA Jean Alain 00:50:58 V1M - M 46 V1M 202
197 DROGUET Joffrey 00:51:00 SEM - M 83 SEM 64
198 MOUSSADJEE Khaled 00:51:07 SEM - M 84 SEM 363
199 TALVY Jean Sebastien 00:51:09 SEM - M 85 SEM 126
200 SAULT Julian 00:51:22 ESM - M 7 ESM 155
201 TATEL Didier 00:51:25 SEM - M 86 SEM 313
202 PAUL Gregory 00:51:27 V1M - M 47 V1M 185
203 TAMIL MARIE GLADYS 00:51:36 V1F - F 26eme F / 6 V1F 161
204 ASSON JEAN JACQUES 00:51:37 V1M - M 48 V1M 164
205 DAFREVILLE Kelly 00:51:39 SEF - F 27eme F / 19 SEF 226
206 LEONARD Corentin 00:51:49 ESM - M 8 ESM 271
207 GEISERT SOPHIE 00:52:00 V1F ACSP F 28eme F / 7 V1F 384
208 RAVATE Zoubeir 00:52:00 SEM - M 87 SEM 353
209 LAVAREL Jean Rico 00:52:19 V2M - M 20 V2M 267
210 MAILLOT PIERRE 00:52:26 V1M - M 49 V1M 103
211 HENRY DIANE 00:52:30 SEF - F 29eme F / 20 SEF 148
212 PANTALEON Jean 00:52:40 V2M - M 21 V2M 367
213 JAMME Bernard 00:52:44 V1M - M 50 V1M 366
214 PORHEL Marie 00:52:50 SEF - F 30eme F / 21 SEF 294
215 MARTINPIRON JEAN LOUIS 00:53:06 V3M AC ST LEU M 8 V3M 349
216 WACHEIM Gabrielle 00:53:06 SEF - F 31eme F / 22 SEF 374
217 LON MON POY MARINELLE 00:53:08 SEF - F 32eme F / 23 SEF 104
218 AURE Marie Josee 00:53:14 V2F - F 33eme F / 2 V2F 88
219 GRANIER arnaud 00:53:17 SEM - M 88 SEM 110
220 SUACOT bernard 00:53:17 V1M - M 51 V1M 146
221 KALYNTSCHUK BERANGERE 00:53:18 SEF ACSP F 34eme F / 24 SEF 145
222 CAUVIN CEDRIC 00:53:19 V1M AC ST LEU M 52 V1M 332
223 ROJAS Julien 00:53:27 SEM - M 89 SEM 28
224 GOVINDAMA ATCHANA GUIRAMA Eric 00:53:58 SEM - M 90 SEM 122
225 JANIN ANNE CECILE 00:54:00 V1F - F 35eme F / 8 V1F 26
226 RIVIERE Stephane 00:54:10 SEM - M 91 SEM 299
227 MUSTUN sabine 00:54:20 V1F - F 36eme F / 9 V1F 141
228 DELVO LAMBERT JOSETTE 00:54:31 SEF DSA F 37eme F / 25 SEF 230
229 DELVO FREDERIC 00:54:32 V1M CALS SUD M 53 V1M 229
230 HYAIS Alain 00:54:33 V1M - M 54 V1M 264
231 TAOCHY didier 00:54:37 V1M - M 55 V1M 93
232 LIEUTENANT Audrey 54:40 SEF - F 38eme F / 26 SEF 154
233 LOUPPE Jean Marie 00:54:40 SEM - M 92 SEM 184
234 LEBON XAVIER 00:55:04 SEM AC ENTENTE M 93 SEM 385
235 TURPIN Nathalie 00:55:10 SEF - F 39eme F / 27 SEF 373
236 MOREL CYRILLE 00:55:15 V1M - M 56 V1M 49
237 ROMONT Bruno 00:55:20 V1M - M 57 V1M 354
238 FERARD Dimitri 00:55:21 SEM - M 94 SEM 306
239 TOUSSAINT Jonathan 00:55:22 SEM - M 95 SEM 317
240 SOLIER Gerard 00:55:26 V3M - M 9 V3M 120
241 CALPETARD Marie catherine 00:55:34 SEF - F 40eme F / 28 SEF 25
242 ESPERANCE Frederic 00:55:42 SEM - M 96 SEM 237
243 TOURTE PASCALE 00:55:51 V1F - F 41eme F / 10 V1F 31
244 FOLIO Emmanuel 00:55:55 SEM - M 97 SEM 243
245 ROUSSIN CELINE 00:55:55 V1F ACSP F 42eme F / 11 V1F 8
246 SOUPAYA Aurelie 00:56:14 SEF - F 43eme F / 29 SEF 38
247 LE BRIS YANN 00:56:17 V1M - M 58 V1M 52
248 FIORINI IRENE 00:56:18 V1F - F 44eme F / 12 V1F 29
249 GRONDIN Theo 00:56:23 CAM - M 4 CAM 369
250 ASSON TEDDY 00:56:39 JUM - M 9 JUM 165
251 SIMME JEAN PRISCA 00:56:43 SEM CASM M 98 SEM 310
252 TAOCHY Nicolas 00:56:53 SEM - M 99 SEM 123
253 LOPEZ Anabel 00:57:01 SEF - F 45eme F / 30 SEF 347
254 DUBUC Bertrand 00:57:14 V1M - M 59 V1M 235
255 HOARAU VERONIQUE 00:57:14 SEF DSA F 46eme F / 31 SEF 72
256 FROU Johan 00:57:24 V1M - M 60 V1M 246
257 NAUD GERARD 00:58:00 V3M - M 10 V3M 117
258 THOUY Francois 00:58:05 V3M - M 11 V3M 365
259 ANDRE Helene 00:58:08 V2F - F 47eme F / 3 V2F 153
260 ROMBAUT Francois 00:58:11 SEM - M 100 SEM 387
261 BIGOT willy 00:58:18 SEM - M 101 SEM 68
262 COLOGON Mathieu 00:58:19 ESM - M 9 ESM 223
263 MAILLOT AUDREY 00:58:27 SEF COSPI F 48eme F / 32 SEF 135
264 CHABANE SEVERINE 00:58:30 V1F - F 49eme F / 13 V1F 48
265 TONNELLIER Marion 00:58:31 SEF - F 50eme F / 33 SEF 102
266 ZINUTTI Marianne 00:58:40 SEF - F 51eme F / 34 SEF 23
267 RAMALINGOM RAMASSAMY Karina 00:59:17 SEF - F 52eme F / 35 SEF 296
268 ABEMONTI J ean Philippe 00:59:54 SEM - M 102 SEM 194
269 LEGER Juliette 00:59:56 SEF - F 53eme F / 36 SEF 346
270 TURPIN Fabienne 00:59:56 SEF - F 54eme F / 37 SEF 370
271 VAR Lucas 00:59:56 V3M - M 12 V3M 320
272 COLOGON Frederic 01:00:10 V1M - M 61 V1M 222
273 GOISLARD RENAUD 01:00:11 SEM AC ST LEU M 103 SEM 340
274 LANDAIS JACKSON 01:00:14 V1M - M 62 V1M 16
275 MARONDIN Sylvie 01:00:43 V1F - F 55eme F / 14 V1F 282
276 FOLIO Beatrice Linda 01:00:45 V1F - F 56eme F / 15 V1F 242
277 HOTTIER Stephane 01:00:48 V1M - M 63 V1M 341
278 TRAPATEAU CLEMENT 01:01:08 SEM - M 104 SEM 53
279 GRONDIN Annabelle 01:01:28 V1F - F 57eme F / 16 V1F 251
280 WOME KUEM FAT Tony 01:01:28 V1M - M 64 V1M 380
281 BIDAN annie lea 01:01:38 V2F - F 58eme F / 4 V2F 57
282 NONNENMACHER MURIEL 01:01:43 SEF - F 59eme F / 38 SEF 54
283 BATELIER Jovanny 01:02:03 SEM - M 105 SEM 207
284 MOREAU Catherine 01:02:19 V1F - F 60eme F / 17 V1F 284
285 MARTIN Julien 01:02:28 SEM - M 106 SEM 348
286 CAUCHETEUX CAROLINE 01:02:50 SEF RUN ODYSSEA F 61eme F / 39 SEF 218
287 ROSIER Corinne 01:03:21 SEF - F 62eme F / 40 SEF 89
288 ROSIER Julien Anthony 01:03:21 CAM - M 5 CAM 182
289 MUSSO isabelle 01:03:28 V3F - F 63eme F / 1 V3F 91
290 PONTALBA Marie Claude 01:03:34 V1F - F 64eme F / 18 V1F 293
291 LAURET Joelle 01:03:43 SEF - F 65eme F / 41 SEF 174
292 BIVAUD Anne Christine 01:03:49 V2F - F 66eme F / 5 V2F 375
293 GRONDIN Patrice 01:04:10 SEM - M 107 SEM 253
294 SOLIER MYRIAM 01:04:49 V2F - F 67eme F / 6 V2F 119
295 RIVIERE VALERIE 01:04:51 SEF DSA F 68eme F / 42 SEF 300
296 HARMS Jan Dirk 01:05:08 V3M - M 13 V3M 137
297 CEYLO Amandine 01:05:09 SEF - F 69eme F / 43 SEF 219
298 REBOULLEAU Valerie 01:05:11 V1F - F 70eme F / 19 V1F 181
299 MONTROUGE VALERIE 01:05:36 V1F - F 71eme F / 20 V1F 46
300 HUET Mirella 01:05:47 SEF - F 72eme F / 44 SEF 262
301 POTHIN Sandra 01:05:47 V1F - F 73eme F / 21 V1F 92
302 LEICHNIG vincent 01:06:16 SEM - M 108 SEM 43
303 BALENCOURT CHRISTINE 01:06:21 V1F - F 74eme F / 22 V1F 170
304 COUDRIET BENJAMIN 01:06:24 SEM DENIV M 109 SEM 173
305 NGUYEN Van Hang 01:06:36 V1M - M 65 V1M 286
306 ANTOINE Christophe 01:07:51 V1M - M 66 V1M 199
307 TANGARADJOU Mandjoula 01:07:57 V1F - F 75eme F / 23 V1F 312
308 ABEMONTI Georges 01:08:21 V1M - M 67 V1M 193
309 BERROUACHDI Rose Noelle 01:09:08 SEF - F 76eme F / 45 SEF 105
310 HOAREAU Anna Belle 01:09:08 SEF - F 77eme F / 46 SEF 61
311 VIENNE Jennifer 01:09:09 SEF - F 78eme F / 47 SEF 147
312 SAUTRON Philippe 01:10:08 V2M - M 22 V2M 305
313 GUEZELLO OLIVIA 01:13:20 SEF RUN ODYSSEA F 79eme F / 48 SEF 255
314 GUIRAUD jean 01:14:42 V3M - M 14 V3M 39
315 BRIEU Claire 01:15:37 SEF - F 80eme F / 49 SEF 216
316 DELAUNAY Isaure 01:15:38 SEF - F 81eme F / 50 SEF 228
317 BIENAIME Marie Anne 01:16:56 V2F - F 82eme F / 7 V2F 208
318 BARTHELEMY Hugues 01:17:03 V2M - M 23 V2M 376


ReferencementCe site est listé dans la catégorie Sport : Sports extrêmes Dictionnaire
| Accueil | La Réunion  Vue du ciel | Météo | Cyclones | Volcan | Cirques de Mafate , Cilaos , Salazie | Photos Randonnées | Randonnées Réunion: Randos Espiègle , Courses montagne | Diagonale des Fous |  Marathon des Sables | Voyages Les stats du site | Fonds écran | Plan du site | Blog de runraid | Galerie photos Sport Réunion |